Time;durP1;ratioP1;P1;durP2;ratioP2;P2;SDS_P1;SDS_P2;PMS_P1;PMS_P2;Temp;Humidity;BMP_temperature;BMP_pressure;BME280_temperature;BME280_humidity;BME280_pressure;Samples;Min_cycle;Max_cycle;Signal;HPM_P1;HPM_P2
2022/04/13 00:01:13;;;;;;;23.30;10.00;;;;;;;7.90;54.47;100416.59;4392802;32;34039;-82
2022/04/13 00:03:42;;;;;;;20.02;9.70;;;;;;;7.80;54.51;100415.09;4405771;32;33436;-81
2022/04/13 00:06:10;;;;;;;17.62;8.65;;;;;;;7.82;54.62;100417.66;4417002;32;33969;-82
2022/04/13 00:08:40;;;;;;;13.48;7.05;;;;;;;7.80;54.50;100420.34;4394344;32;33788;-81
2022/04/13 00:11:07;;;;;;;16.62;7.53;;;;;;;7.59;54.86;100415.53;4395431;32;34206;-82
2022/04/13 00:13:35;;;;;;;10.73;5.53;;;;;;;7.44;55.64;100425.47;4407537;32;33993;-82
2022/04/13 00:16:03;;;;;;;10.07;5.95;;;;;;;7.40;55.54;100426.44;4407354;32;34388;-83
2022/04/13 00:18:31;;;;;;;7.75;5.10;;;;;;;7.60;54.92;100425.19;4393807;32;33862;-82
2022/04/13 00:20:58;;;;;;;11.27;5.28;;;;;;;7.55;54.81;100425.28;4393383;32;32502;-83
2022/04/13 00:23:26;;;;;;;10.50;5.93;;;;;;;7.55;54.85;100430.53;4392407;32;33567;-82
2022/04/13 00:25:54;;;;;;;8.95;4.50;;;;;;;7.60;54.58;100427.81;4392625;32;33526;-82
2022/04/13 00:28:22;;;;;;;9.27;5.22;;;;;;;7.47;55.30;100429.81;4392760;32;34042;-84
2022/04/13 00:30:50;;;;;;;9.95;4.93;;;;;;;7.31;55.84;100426.66;4392860;32;33646;-83
2022/04/13 00:33:18;;;;;;;11.68;5.87;;;;;;;7.76;54.18;100426.56;4394171;32;34653;-83
2022/04/13 00:35:46;;;;;;;8.23;4.80;;;;;;;7.35;55.63;100428.31;4405532;32;34709;-83
2022/04/13 00:38:13;;;;;;;8.23;5.12;;;;;;;7.37;55.50;100423.91;4392874;32;33738;-83
2022/04/13 00:40:41;;;;;;;14.50;6.28;;;;;;;7.31;55.63;100423.13;4405215;32;33692;-82
2022/04/13 00:43:09;;;;;;;9.90;5.25;;;;;;;7.15;56.33;100430.47;4392719;32;35191;-82
2022/04/13 00:45:36;;;;;;;8.20;5.57;;;;;;;7.16;56.51;100429.56;4404208;32;33097;-82
2022/04/13 00:48:06;;;;;;;10.82;5.37;;;;;;;7.26;55.78;100427.63;4415294;32;34755;-82
2022/04/13 00:50:34;;;;;;;7.90;4.25;;;;;;;7.22;55.60;100432.09;4405197;32;34281;-83
2022/04/13 00:53:03;;;;;;;7.62;4.53;;;;;;;7.06;55.89;100442.00;4417342;32;33903;-81
2022/04/13 00:55:31;;;;;;;7.22;4.43;;;;;;;6.99;56.35;100436.94;4380244;32;32497;-81
2022/04/13 00:58:00;;;;;;;8.70;4.18;;;;;;;7.00;56.00;100425.53;4392396;32;34249;-80
2022/04/13 01:00:28;;;;;;;9.25;3.80;;;;;;;6.84;56.00;100440.69;4393821;32;33338;-80
2022/04/13 01:02:57;;;;;;;6.75;3.20;;;;;;;6.98;55.26;100436.06;4407909;32;33978;-80
2022/04/13 01:05:26;;;;;;;10.73;4.07;;;;;;;6.84;55.46;100436.31;4394492;32;34014;-80
2022/04/13 01:07:54;;;;;;;7.93;3.37;;;;;;;6.90;55.22;100435.34;4381830;32;33087;-81
2022/04/13 01:10:22;;;;;;;5.82;3.10;;;;;;;7.00;55.18;100446.53;4394225;32;33858;-80
2022/04/13 01:12:50;;;;;;;5.60;3.50;;;;;;;7.11;54.72;100431.41;4381939;32;33573;-81
2022/04/13 01:15:17;;;;;;;5.65;3.58;;;;;;;7.20;54.42;100436.50;4381764;32;32647;-80
2022/04/13 01:17:46;;;;;;;4.20;2.67;;;;;;;7.12;55.12;100430.53;4409268;32;33003;-80
2022/04/13 01:20:16;;;;;;;5.95;3.78;;;;;;;6.95;55.70;100438.75;4412870;32;34274;-80
2022/04/13 01:22:47;;;;;;;8.70;3.28;;;;;;;7.14;54.89;100432.22;4406632;32;33446;-80
2022/04/13 01:25:14;;;;;;;5.90;2.95;;;;;;;7.09;54.59;100436.72;4409097;32;33423;-80
2022/04/13 01:27:42;;;;;;;5.45;2.55;;;;;;;6.97;54.53;100446.56;4396463;32;34197;-80
2022/04/13 01:30:11;;;;;;;6.60;3.08;;;;;;;6.99;54.21;100445.66;4409021;32;32581;-81
2022/04/13 01:32:39;;;;;;;5.95;3.50;;;;;;;6.90;54.11;100446.69;4408883;32;33641;-80
2022/04/13 01:35:07;;;;;;;8.00;3.55;;;;;;;7.15;53.67;100435.72;4393335;32;33591;-80
2022/04/13 01:37:34;;;;;;;5.57;3.05;;;;;;;6.92;54.98;100454.53;4408844;32;34128;-81
2022/04/13 01:40:02;;;;;;;2.97;2.33;;;;;;;7.03;54.71;100452.59;4406141;32;34897;-81
2022/04/13 01:42:30;;;;;;;4.57;2.85;;;;;;;7.07;54.48;100450.75;4408850;32;33372;-83
2022/04/13 01:44:57;;;;;;;4.90;2.70;;;;;;;6.98;54.94;100454.44;4394962;32;33591;-82
2022/04/13 01:47:25;;;;;;;4.70;3.17;;;;;;;6.85;56.07;100453.78;4393822;32;34535;-81
2022/04/13 01:49:53;;;;;;;4.85;3.35;;;;;;;6.83;55.47;100455.56;4406751;32;33961;-81
2022/04/13 01:52:20;;;;;;;8.30;4.03;;;;;;;7.04;54.87;100464.81;4406527;32;32362;-81
2022/04/13 01:54:48;;;;;;;6.15;3.67;;;;;;;6.81;55.99;100464.37;4406775;32;34146;-81
2022/04/13 01:57:15;;;;;;;4.20;3.53;;;;;;;6.83;55.52;100460.81;4407375;32;34075;-81
2022/04/13 01:59:43;;;;;;;6.62;3.47;;;;;;;6.65;56.21;100461.16;4393790;32;31960;-81
2022/04/13 02:02:11;;;;;;;7.12;3.20;;;;;;;6.59;56.24;100463.87;4395710;32;33833;-81
2022/04/13 02:04:40;;;;;;;7.70;4.07;;;;;;;6.62;56.46;100463.81;4393995;32;33939;-82
2022/04/13 02:07:08;;;;;;;5.55;3.30;;;;;;;6.50;56.69;100467.50;4381232;32;32722;-81
2022/04/13 02:09:35;;;;;;;6.90;3.10;;;;;;;6.51;56.92;100465.78;4381248;32;33331;-81
2022/04/13 02:12:03;;;;;;;5.90;3.67;;;;;;;6.35;57.34;100473.00;4395303;32;33599;-81
2022/04/13 02:14:31;;;;;;;6.25;3.15;;;;;;;6.29;57.74;100467.84;4393309;32;33344;-81
2022/04/13 02:16:59;;;;;;;5.00;3.40;;;;;;;6.36;57.41;100475.62;4408200;32;33767;-81
2022/04/13 02:19:26;;;;;;;7.03;3.40;;;;;;;6.25;57.74;100468.78;4398214;32;33440;-82
2022/04/13 02:21:54;;;;;;;9.63;3.75;;;;;;;6.55;56.61;100475.28;4403270;32;33569;-82
2022/04/13 02:24:22;;;;;;;6.07;3.25;;;;;;;6.33;56.63;100474.78;4405201;32;33889;-80
2022/04/13 02:26:50;;;;;;;9.20;4.00;;;;;;;6.55;56.13;100475.28;4393822;32;33716;-81
2022/04/13 02:29:17;;;;;;;5.87;4.12;;;;;;;6.64;55.97;100475.16;4402252;32;34320;-81
2022/04/13 02:31:45;;;;;;;6.70;3.80;;;;;;;6.28;57.08;100466.12;4407280;32;33150;-81
2022/04/13 02:34:13;;;;;;;6.10;3.15;;;;;;;5.93;58.33;100470.13;4406213;32;34722;-81
2022/04/13 02:36:41;;;;;;;5.62;3.83;;;;;;;5.97;58.04;100470.94;4395955;32;34147;-81
2022/04/13 02:39:08;;;;;;;7.25;3.90;;;;;;;6.23;57.21;100473.22;4393771;32;33477;-81
2022/04/13 02:41:36;;;;;;;6.62;4.05;;;;;;;6.29;56.80;100479.22;4395165;32;33831;-81
2022/04/13 02:44:04;;;;;;;7.93;3.80;;;;;;;6.26;56.75;100467.91;4393047;32;33683;-82
2022/04/13 02:46:32;;;;;;;6.55;3.87;;;;;;;6.37;56.29;100479.97;4393586;32;33503;-81
2022/04/13 02:48:59;;;;;;;5.95;3.97;;;;;;;6.29;56.57;100479.22;4393584;32;32319;-81
2022/04/13 02:51:27;;;;;;;5.47;3.50;;;;;;;6.19;57.25;100479.38;4408231;32;34208;-81
2022/04/13 02:53:54;;;;;;;6.72;4.07;;;;;;;6.02;57.84;100483.09;4400604;32;33373;-81
2022/04/13 02:56:22;;;;;;;6.35;3.08;;;;;;;6.02;57.96;100480.47;4407826;32;33784;-82
2022/04/13 02:58:50;;;;;;;9.45;3.85;;;;;;;6.19;57.38;100477.63;4407493;32;33911;-82
2022/04/13 03:01:17;;;;;;;6.82;3.70;;;;;;;5.86;58.22;100482.41;4393150;32;33332;-82
2022/04/13 03:03:45;;;;;;;7.00;3.78;;;;;;;6.04;57.70;100483.09;4393457;32;33006;-82
2022/04/13 03:06:13;;;;;;;14.65;4.68;;;;;;;5.80;59.03;100479.03;4411635;32;33748;-82
2022/04/13 03:08:40;;;;;;;9.23;5.20;;;;;;;5.92;58.62;100483.25;4394223;32;33347;-81
2022/04/13 03:11:08;;;;;;;9.20;3.85;;;;;;;5.91;58.84;100482.38;4408412;32;33943;-81
2022/04/13 03:13:36;;;;;;;8.98;4.35;;;;;;;5.58;59.64;100486.28;4407741;32;33702;-81
2022/04/13 03:16:04;;;;;;;7.65;3.53;;;;;;;5.71;59.71;100489.62;4403360;32;33432;-81
2022/04/13 03:18:32;;;;;;;7.80;3.83;;;;;;;5.85;58.89;100485.94;4407572;32;33453;-82
2022/04/13 03:20:59;;;;;;;11.43;3.70;;;;;;;5.78;58.84;100492.13;4419953;32;33381;-80
2022/04/13 03:23:27;;;;;;;8.13;4.65;;;;;;;5.97;58.05;100486.69;4403719;32;33452;-80
2022/04/13 03:25:55;;;;;;;7.15;4.00;;;;;;;5.78;58.58;100492.13;4418131;32;34158;-81
2022/04/13 03:28:23;;;;;;;7.30;3.25;;;;;;;5.62;59.00;100491.47;4394123;32;32510;-80
2022/04/13 03:30:52;;;;;;;7.28;3.17;;;;;;;5.67;59.23;100493.16;4393020;32;33574;-81
2022/04/13 03:33:20;;;;;;;6.25;3.60;;;;;;;5.66;59.04;100494.94;4393643;32;34020;-80
2022/04/13 03:35:48;;;;;;;9.93;4.43;;;;;;;5.58;59.38;100496.75;4393178;32;33433;-82
2022/04/13 03:38:15;;;;;;;6.57;3.30;;;;;;;5.29;60.15;100503.22;4392573;32;32540;-82
2022/04/13 03:40:43;;;;;;;7.28;3.83;;;;;;;5.65;59.08;100503.69;4393210;32;33547;-82
2022/04/13 03:43:12;;;;;;;8.45;4.43;;;;;;;5.71;58.16;100506.22;4407040;32;33263;-82
2022/04/13 03:45:39;;;;;;;5.45;3.55;;;;;;;5.58;58.60;100507.25;4392950;32;33709;-80
2022/04/13 03:48:07;;;;;;;6.78;3.55;;;;;;;5.56;58.75;100506.41;4393205;32;33097;-80
2022/04/13 03:50:35;;;;;;;10.88;3.67;;;;;;;5.64;58.46;100509.78;4388496;32;33138;-80
2022/04/13 03:53:02;;;;;;;8.30;4.10;;;;;;;5.76;57.95;100517.50;4394178;32;33637;-81
2022/04/13 03:55:30;;;;;;;6.43;3.80;;;;;;;5.72;57.81;100518.44;4393204;32;34557;-80
2022/04/13 03:57:58;;;;;;;10.63;4.68;;;;;;;5.55;58.61;100512.50;4393325;32;32922;-80
2022/04/13 04:00:26;;;;;;;6.93;4.37;;;;;;;5.53;58.68;100522.16;4406863;32;33900;-80
2022/04/13 04:02:54;;;;;;;7.72;3.65;;;;;;;5.76;57.98;100528.00;4393488;32;33742;-80
2022/04/13 04:05:22;;;;;;;6.70;3.83;;;;;;;5.66;58.28;100518.50;4393175;32;34879;-80
2022/04/13 04:07:50;;;;;;;7.20;4.40;;;;;;;5.69;57.82;100526.31;4393296;32;33263;-80
2022/04/13 04:10:18;;;;;;;7.35;4.68;;;;;;;5.67;57.98;100530.72;4393144;32;34190;-80
2022/04/13 04:12:46;;;;;;;6.30;4.00;;;;;;;5.66;58.12;100523.75;4392960;32;33381;-80
2022/04/13 04:15:14;;;;;;;14.77;4.65;;;;;;;5.60;58.05;100523.78;4406211;32;35171;-80
2022/04/13 04:17:41;;;;;;;8.02;3.83;;;;;;;5.42;59.03;100531.91;4394627;32;33715;-80
2022/04/13 04:20:09;;;;;;;8.88;4.00;;;;;;;5.58;58.19;100525.59;4402354;32;33221;-80
2022/04/13 04:22:37;;;;;;;8.70;4.97;;;;;;;5.37;58.94;100530.19;4380226;32;33713;-82
2022/04/13 04:25:07;;;;;;;5.68;3.80;;;;;;;5.61;58.33;100530.78;4409931;32;33375;-82
2022/04/13 04:27:35;;;;;;;8.65;3.78;;;;;;;5.29;59.18;100534.63;4380651;32;33574;-81
2022/04/13 04:30:03;;;;;;;6.93;5.03;;;;;;;5.49;58.62;100538.78;4406171;32;34208;-82
2022/04/13 04:32:31;;;;;;;11.70;4.37;;;;;;;5.28;59.70;100539.91;4392205;32;33670;-82
2022/04/13 04:34:59;;;;;;;8.57;4.15;;;;;;;5.64;58.71;100549.06;4386502;32;33272;-82
2022/04/13 04:37:26;;;;;;;10.82;4.30;;;;;;;5.32;59.56;100544.22;4405914;32;33418;-82
2022/04/13 04:39:54;;;;;;;13.70;5.95;;;;;;;5.55;59.19;100546.56;4392497;32;32780;-82
2022/04/13 04:42:22;;;;;;;7.15;4.43;;;;;;;5.67;59.00;100546.44;4393038;32;33901;-83
2022/04/13 04:44:55;;;;;;;10.43;5.37;;;;;;;5.74;59.17;100540.22;4379843;32;33542;-82
2022/04/13 04:47:24;;;;;;;8.57;4.68;;;;;;;6.22;58.10;100540.53;4404585;32;33769;-81
2022/04/13 04:49:52;;;;;;;19.37;7.50;;;;;;;5.86;59.36;100542.69;4403135;32;34634;-81
2022/04/13 04:52:19;;;;;;;13.73;7.00;;;;;;;5.67;59.99;100550.81;4399619;32;34276;-81
2022/04/13 04:54:47;;;;;;;23.90;11.25;;;;;;;5.79;59.70;100546.31;4402341;32;34156;-81
2022/04/13 04:57:14;;;;;;;20.60;10.93;;;;;;;6.13;59.41;100553.75;4392027;32;32263;-81
2022/04/13 04:59:42;;;;;;;22.10;10.75;;;;;;;6.22;59.62;100551.03;4401896;32;32789;-81
2022/04/13 05:02:10;;;;;;;15.85;8.07;;;;;;;6.63;58.80;100557.41;4397374;32;33961;-82
2022/04/13 05:04:37;;;;;;;16.05;7.10;;;;;;;6.62;59.03;100556.53;4400106;32;32381;-81
2022/04/13 05:07:07;;;;;;;10.07;5.70;;;;;;;6.61;58.90;100560.06;4410702;32;33560;-82
2022/04/13 05:09:35;;;;;;;12.30;5.93;;;;;;;6.62;57.96;100560.91;4395943;32;33862;-82
2022/04/13 05:12:02;;;;;;;11.48;5.78;;;;;;;6.92;57.34;100555.16;4399322;32;33931;-80
2022/04/13 05:14:30;;;;;;;11.55;6.25;;;;;;;6.88;57.63;100563.09;4396864;32;34453;-81
2022/04/13 05:16:58;;;;;;;11.55;7.20;;;;;;;7.29;57.19;100558.91;4418444;32;33989;-82
2022/04/13 05:19:33;;;;;;;9.52;6.40;;;;;;;7.41;56.90;100559.56;4404594;32;33709;-82
2022/04/13 05:22:02;;;;;;;15.27;7.32;;;;;;;7.21;56.64;100551.16;4403584;32;34646;-81
2022/04/13 05:24:30;;;;;;;17.87;6.22;;;;;;;7.41;56.48;100564.81;4390366;32;33477;-82
2022/04/13 05:26:57;;;;;;;18.58;6.60;;;;;;;7.76;56.13;100559.78;4388153;32;33589;-81
2022/04/13 05:29:25;;;;;;;12.27;6.60;;;;;;;7.95;55.68;100561.12;4405469;32;33572;-82
2022/04/13 05:31:53;;;;;;;12.30;6.72;;;;;;;8.24;55.30;100565.75;4391887;32;33918;-82
2022/04/13 05:34:20;;;;;;;12.50;6.60;;;;;;;8.08;55.01;100567.00;4390595;32;33873;-81
2022/04/13 05:36:48;;;;;;;17.95;6.15;;;;;;;8.37;55.01;100579.56;4391931;32;33057;-81
2022/04/13 05:39:15;;;;;;;10.77;5.37;;;;;;;8.00;53.37;100571.56;4380827;32;32707;-81
2022/04/13 05:41:43;;;;;;;8.18;4.65;;;;;;;8.35;50.97;100571.66;4395423;32;33996;-81
2022/04/13 05:44:11;;;;;;;11.02;5.30;;;;;;;8.50;50.18;100582.75;4400032;32;33839;-81
2022/04/13 05:46:38;;;;;;;9.73;5.22;;;;;;;9.06;50.38;100580.56;4392850;32;32911;-81
2022/04/13 05:49:06;;;;;;;9.45;4.53;;;;;;;9.18;48.73;100582.87;4380405;32;33528;-81
2022/04/13 05:51:34;;;;;;;10.68;4.72;;;;;;;9.66;46.83;100579.84;4395263;32;33573;-81
2022/04/13 05:54:01;;;;;;;9.55;4.72;;;;;;;9.79;46.83;100575.13;4393863;32;34203;-82
2022/04/13 05:56:29;;;;;;;9.30;5.87;;;;;;;9.96;46.00;100571.06;4393985;32;33554;-82
2022/04/13 05:58:57;;;;;;;10.85;5.00;;;;;;;9.53;47.26;100571.41;4393739;32;85310;-81
2022/04/13 06:01:24;;;;;;;6.93;4.68;;;;;;;10.25;44.90;100578.19;4405708;32;34444;-81
2022/04/13 06:03:52;;;;;;;8.10;5.72;;;;;;;10.38;44.07;100583.09;4393460;32;33653;-81
2022/04/13 06:06:20;;;;;;;8.70;5.28;;;;;;;10.15;43.84;100575.81;4396099;32;34960;-81
2022/04/13 06:08:47;;;;;;;10.30;5.32;;;;;;;10.60;43.17;100578.00;4381076;32;32855;-81
2022/04/13 06:11:15;;;;;;;9.48;5.35;;;;;;;10.61;44.64;100590.28;4407498;32;33417;-81
2022/04/13 06:13:42;;;;;;;17.25;5.87;;;;;;;10.80;42.44;100591.44;4397120;32;32998;-81
2022/04/13 06:16:10;;;;;;;9.15;5.30;;;;;;;10.75;43.01;100599.50;4420910;32;34381;-82
2022/04/13 06:18:38;;;;;;;14.07;5.35;;;;;;;11.08;42.06;100595.84;4406956;32;34501;-82
2022/04/13 06:21:06;;;;;;;10.52;5.70;;;;;;;11.40;42.09;100595.63;4404921;32;34427;-83
2022/04/13 06:23:38;;;;;;;9.20;5.18;;;;;;;11.71;40.54;100594.53;4398220;32;34087;-84
2022/04/13 06:26:06;;;;;;;9.32;5.43;;;;;;;11.29;41.22;100603.03;4394729;32;34388;-82
2022/04/13 06:28:33;;;;;;;10.50;4.87;;;;;;;11.58;41.92;100595.88;4395159;32;33882;-82
2022/04/13 06:31:01;;;;;;;10.07;6.20;;;;;;;11.52;40.91;100605.75;4396455;32;33460;-82
2022/04/13 06:33:29;;;;;;;13.23;6.15;;;;;;;11.34;40.96;100603.75;4393653;32;34617;-82
2022/04/13 06:35:58;;;;;;;8.65;5.47;;;;;;;11.72;41.14;100604.19;4394908;32;33291;-82
2022/04/13 06:38:26;;;;;;;9.82;5.57;;;;;;;11.93;40.60;100608.75;4418210;32;33682;-82
2022/04/13 06:40:55;;;;;;;13.05;5.80;;;;;;;11.69;39.43;100614.91;4391408;32;33883;-82
2022/04/13 06:43:22;;;;;;;11.23;6.10;;;;;;;12.03;39.47;100614.56;4409877;32;33988;-82
2022/04/13 06:45:53;;;;;;;7.35;5.32;;;;;;;11.78;40.32;100617.22;4397114;32;33217;-82
2022/04/13 06:48:23;;;;;;;8.82;6.05;;;;;;;11.86;39.45;100607.25;4401679;32;33121;-82
2022/04/13 06:50:51;;;;;;;9.88;6.12;;;;;;;11.83;39.93;100617.94;4397129;32;33452;-81
2022/04/13 06:53:21;;;;;;;8.93;6.03;;;;;;;11.72;40.32;100609.47;4402002;32;34532;-82
2022/04/13 06:55:51;;;;;;;12.07;6.62;;;;;;;12.58;39.03;100607.22;4394140;32;32732;-82
2022/04/13 06:58:19;;;;;;;12.73;6.20;;;;;;;12.57;39.07;100606.31;4393148;32;33574;-82
2022/04/13 07:00:47;;;;;;;8.35;5.22;;;;;;;12.38;38.40;100615.03;4407373;32;33918;-82
2022/04/13 07:03:14;;;;;;;10.95;6.15;;;;;;;12.40;38.93;100608.78;4383068;32;34442;-82
2022/04/13 07:05:42;;;;;;;6.85;4.87;;;;;;;12.66;38.29;100609.53;4408334;32;32717;-81
2022/04/13 07:08:10;;;;;;;13.98;5.32;;;;;;;12.80;36.85;100605.41;4408916;32;33908;-82
2022/04/13 07:10:37;;;;;;;12.57;5.70;;;;;;;13.27;36.99;100601.78;4385484;32;35219;-82
2022/04/13 07:13:11;;;;;;;12.35;5.45;;;;;;;12.90;36.96;100603.25;4399656;32;33866;-82
2022/04/13 07:15:39;;;;;;;12.50;5.93;;;;;;;13.01;36.72;100606.34;4406930;32;32345;-82
2022/04/13 07:18:07;;;;;;;8.88;5.82;;;;;;;13.24;36.33;100608.06;4408701;32;32851;-82
2022/04/13 07:20:35;;;;;;;12.65;6.40;;;;;;;13.04;35.49;100608.84;4386237;32;34705;-81
2022/04/13 07:23:02;;;;;;;10.10;5.22;;;;;;;13.41;35.63;100615.31;4395029;32;34208;-82
2022/04/13 07:25:31;;;;;;;14.00;5.82;;;;;;;13.71;35.96;100602.50;4409163;32;33042;-82
2022/04/13 07:28:01;;;;;;;9.35;5.18;;;;;;;13.60;34.62;100596.81;4407647;32;34346;-81
2022/04/13 07:30:28;;;;;;;7.93;5.00;;;;;;;13.75;34.48;100606.75;4394071;32;33461;-82
2022/04/13 07:33:01;;;;;;;11.50;4.57;;;;;;;13.49;35.91;100602.59;4393975;32;34116;-82
2022/04/13 07:35:31;;;;;;;7.95;4.62;;;;;;;13.31;33.29;100611.34;4391160;32;32659;-82
2022/04/13 07:37:58;;;;;;;8.45;4.25;;;;;;;13.72;32.58;100613.97;4408869;32;33118;-81
2022/04/13 07:40:26;;;;;;;6.22;3.95;;;;;;;13.90;32.17;100615.84;4399773;32;33947;-83
2022/04/13 07:42:54;;;;;;;6.35;4.45;;;;;;;13.84;33.63;100613.47;4407940;32;34352;-82
2022/04/13 07:45:22;;;;;;;14.65;5.93;;;;;;;14.27;33.62;100622.16;4421365;32;33472;-82
2022/04/13 07:47:49;;;;;;;9.10;5.85;;;;;;;14.56;32.58;100611.06;4408736;32;33832;-82
2022/04/13 07:50:17;;;;;;;11.75;5.05;;;;;;;14.71;32.55;100616.56;4408821;32;32505;-82
2022/04/13 07:52:45;;;;;;;8.63;4.65;;;;;;;14.91;31.54;100611.19;4420868;32;33776;-82
2022/04/13 07:55:12;;;;;;;7.35;5.45;;;;;;;14.50;31.84;100621.13;4396015;32;32101;-82
2022/04/13 07:57:41;;;;;;;6.55;4.80;;;;;;;14.95;31.19;100619.84;4421057;32;33973;-83
2022/04/13 08:00:10;;;;;;;9.60;4.50;;;;;;;14.93;32.07;100622.59;4408272;32;34178;-82
2022/04/13 08:02:42;;;;;;;7.55;4.47;;;;;;;14.96;31.68;100617.13;4408186;32;33517;-82
2022/04/13 08:05:15;;;;;;;6.22;4.40;;;;;;;15.21;30.80;100622.09;4407709;32;33721;-82
2022/04/13 08:07:42;;;;;;;7.72;4.25;;;;;;;15.28;30.23;100619.97;4407838;32;33825;-83
2022/04/13 08:10:11;;;;;;;7.97;4.87;;;;;;;15.12;32.39;100622.56;4406576;32;33542;-82
2022/04/13 08:12:42;;;;;;;11.32;4.53;;;;;;;15.33;30.10;100621.50;4407836;32;32961;-82
2022/04/13 08:15:10;;;;;;;10.10;4.90;;;;;;;15.65;31.18;100615.50;4395515;32;32742;-82
2022/04/13 08:17:39;;;;;;;8.43;4.50;;;;;;;15.37;30.81;100624.84;4406827;32;35059;-82
2022/04/13 08:20:08;;;;;;;8.25;4.12;;;;;;;15.80;29.16;100612.03;4408221;32;33614;-83
2022/04/13 08:22:36;;;;;;;7.12;3.65;;;;;;;15.82;30.74;100618.16;4407642;32;33731;-82
2022/04/13 08:25:04;;;;;;;6.32;3.45;;;;;;;15.81;30.94;100627.09;4395362;32;33235;-82
2022/04/13 08:27:32;;;;;;;11.80;3.30;;;;;;;15.85;29.15;100633.94;4394927;32;32721;-82
2022/04/13 08:29:59;;;;;;;4.62;3.03;;;;;;;15.66;27.77;100617.19;4407944;32;32914;-83
2022/04/13 08:32:27;;;;;;;8.40;3.35;;;;;;;15.65;27.26;100615.50;4395060;32;33752;-82
2022/04/13 08:34:55;;;;;;;6.85;3.10;;;;;;;15.55;29.91;100613.25;4394826;32;33288;-83
2022/04/13 08:37:24;;;;;;;15.35;3.28;;;;;;;16.26;26.70;100609.56;4414506;32;34852;-82
2022/04/13 08:39:52;;;;;;;5.12;3.17;;;;;;;15.94;28.52;100620.16;4405191;32;33212;-82
2022/04/13 08:42:54;;;;;;;5.62;3.50;;;;;;;15.59;27.89;100617.50;4417465;32;33789;-82
2022/04/13 08:45:24;;;;;;;9.70;4.12;;;;;;;16.17;27.16;100615.41;4394115;32;32239;-82
2022/04/13 08:47:56;;;;;;;6.82;3.37;;;;;;;16.30;28.37;100619.13;4392377;32;33538;-82
2022/04/13 08:50:29;;;;;;;6.25;3.30;;;;;;;16.36;28.72;100614.31;4379603;32;33354;-82
2022/04/13 08:52:59;;;;;;;4.72;3.00;;;;;;;16.13;27.96;100626.22;4392498;32;33965;-82
2022/04/13 08:55:29;;;;;;;8.00;3.33;;;;;;;16.07;28.74;100629.22;4380018;32;34017;-82
2022/04/13 08:58:20;;;;;;;5.45;3.75;;;;;;;16.02;30.81;100620.59;4415048;32;32750;-82
2022/04/13 09:00:50;;;;;;;5.85;3.85;;;;;;;16.22;30.52;100616.87;4414026;32;33616;-83
2022/04/13 09:03:25;;;;;;;8.88;3.87;;;;;;;16.40;27.96;100615.00;4392823;32;34169;-83
2022/04/13 09:05:56;;;;;;;6.07;4.20;;;;;;;16.76;28.46;100608.59;4391045;32;31881;-83
2022/04/13 09:08:42;;;;;;;5.60;3.83;;;;;;;17.17;28.76;100605.38;4411154;32;33914;-83
2022/04/13 09:11:13;;;;;;;4.50;3.95;;;;;;;17.01;28.21;100606.28;4404872;32;34167;-82
2022/04/13 09:13:44;;;;;;;6.60;3.92;;;;;;;17.04;26.53;100603.44;4390931;32;34077;-82
2022/04/13 09:16:12;;;;;;;5.68;3.12;;;;;;;16.80;26.96;100612.81;4391448;32;33118;-82
2022/04/13 09:18:41;;;;;;;5.47;2.80;;;;;;;17.05;26.53;100618.50;4381966;32;32756;-83
2022/04/13 09:21:11;;;;;;;5.35;3.85;;;;;;;17.07;25.85;100611.25;4394158;32;32844;-83
2022/04/13 09:23:40;;;;;;;8.52;4.22;;;;;;;17.47;25.70;100597.34;4393173;32;33093;-83
2022/04/13 09:26:08;;;;;;;6.03;4.37;;;;;;;17.70;26.25;100601.31;4394357;32;34346;-82
2022/04/13 09:28:37;;;;;;;4.85;3.50;;;;;;;17.87;26.08;100591.38;4408315;32;32743;-82
2022/04/13 09:31:05;;;;;;;7.75;4.20;;;;;;;17.52;25.50;100590.81;4393343;32;33140;-82
2022/04/13 09:33:33;;;;;;;8.55;4.07;;;;;;;17.33;26.84;100606.22;4382156;32;33564;-82
2022/04/13 09:36:01;;;;;;;7.10;4.50;;;;;;;17.69;27.21;100595.12;4380763;32;34054;-83
2022/04/13 09:38:29;;;;;;;8.45;4.03;;;;;;;17.53;29.14;100597.88;4394753;32;32915;-83
2022/04/13 09:41:06;;;;;;;6.78;4.18;;;;;;;17.90;26.37;100596.53;4408228;32;34785;-84
2022/04/13 09:43:34;;;;;;;8.30;4.50;;;;;;;17.93;28.19;100584.78;4394346;32;33823;-83
2022/04/13 09:46:03;;;;;;;8.02;4.50;;;;;;;18.60;27.54;100585.87;4400220;32;32629;-83
2022/04/13 09:48:30;;;;;;;5.95;3.78;;;;;;;18.33;28.59;100583.16;4402989;32;33606;-83
2022/04/13 09:51:00;;;;;;;8.00;5.10;;;;;;;18.75;28.29;100581.38;4400176;32;34081;-83
2022/04/13 09:53:28;;;;;;;8.52;4.15;;;;;;;18.25;27.46;100579.25;4393157;32;34178;-83
2022/04/13 09:55:59;;;;;;;6.93;5.28;;;;;;;18.85;25.92;100581.66;4384088;32;33325;-83
2022/04/13 09:58:30;;;;;;;6.80;4.53;;;;;;;18.62;25.89;100581.28;4393192;32;32829;-83
2022/04/13 10:01:03;;;;;;;4.80;3.53;;;;;;;18.71;24.77;100581.69;4393399;32;34062;-83
2022/04/13 10:03:31;;;;;;;7.80;4.25;;;;;;;18.76;27.71;100572.41;4405082;32;34142;-83
2022/04/13 10:05:59;;;;;;;6.60;4.00;;;;;;;18.96;25.66;100570.22;4394869;32;33589;-82
2022/04/13 10:08:28;;;;;;;6.18;4.57;;;;;;;19.16;25.92;100575.09;4392927;32;34214;-83
2022/04/13 10:10:58;;;;;;;8.15;4.72;;;;;;;18.99;24.40;100568.22;4393628;32;33975;-82
2022/04/13 10:13:42;;;;;;;13.38;4.10;;;;;;;18.82;25.90;100572.00;4405897;32;32970;-81
2022/04/13 10:16:12;;;;;;;7.28;4.55;;;;;;;18.86;24.69;100569.97;4399281;32;34234;-82
2022/04/13 10:19:01;;;;;;;6.62;3.92;;;;;;;18.93;24.05;100566.78;4393908;32;33987;-83
2022/04/13 10:21:45;;;;;;;7.43;4.55;;;;;;;18.68;26.28;100572.91;4383546;32;34240;-83
2022/04/13 10:24:33;;;;;;;7.80;4.53;;;;;;;18.46;26.22;100572.53;4380606;32;34610;-82
2022/04/13 10:27:16;;;;;;;7.40;4.53;;;;;;;18.83;26.06;100563.00;4393982;32;35075;-83
2022/04/13 10:29:44;;;;;;;;;;;;;;;19.25;23.92;100560.25;4389331;32;33078;-83
2022/04/13 10:32:25;;;;;;;9.32;4.30;;;;;;;19.45;23.65;100551.69;4380083;32;34941;-82
2022/04/13 10:34:55;;;;;;;6.07;3.60;;;;;;;19.32;24.93;100546.34;4395836;32;33806;-83
2022/04/13 10:37:24;;;;;;;7.12;4.65;;;;;;;19.16;27.35;100559.03;4393723;32;32813;-82
2022/04/13 10:39:58;;;;;;;9.52;4.68;;;;;;;19.24;24.95;100547.81;4404888;32;33421;-82
2022/04/13 10:42:30;;;;;;;6.82;4.32;;;;;;;19.44;25.24;100545.50;4394337;32;34541;-82
2022/04/13 10:45:06;;;;;;;9.20;4.90;;;;;;;19.77;25.72;100548.66;4393368;32;32888;-83
2022/04/13 10:48:07;;;;;;;6.78;4.25;;;;;;;19.38;28.18;100545.91;4395795;32;32758;-83
2022/04/13 10:50:55;;;;;;;5.80;4.35;;;;;;;20.47;22.96;100530.22;4380752;32;33414;-82
2022/04/13 10:53:33;;;;;;;8.52;4.53;;;;;;;20.34;25.61;100529.38;4392365;32;33877;-82
2022/04/13 10:56:03;;;;;;;8.90;4.87;;;;;;;20.45;24.87;100518.69;4393652;32;33727;-82
2022/04/13 10:59:02;;;;;;;10.50;4.90;;;;;;;20.14;22.18;100522.78;4394205;32;32131;-82
2022/04/13 11:01:38;;;;;;;7.15;4.25;;;;;;;19.40;24.49;100533.28;4420304;32;34713;-82
2022/04/13 11:04:07;;;;;;;8.98;4.35;;;;;;;19.59;23.27;100532.84;4392852;32;33289;-82
2022/04/13 11:06:35;;;;;;;9.52;5.10;;;;;;;19.74;30.24;100520.22;4419066;32;34109;-83
2022/04/13 11:09:07;;;;;;;7.50;5.00;;;;;;;19.91;26.60;100524.41;4386582;32;33130;-82
2022/04/13 11:11:36;;;;;;;16.83;5.60;;;;;;;20.37;25.01;100505.88;4399523;32;33340;-82
2022/04/13 11:14:24;;;;;;;6.90;4.97;;;;;;;19.89;24.40;100507.56;4392977;32;33951;-82
2022/04/13 11:17:04;;;;;;;7.28;4.80;;;;;;;20.00;23.77;100509.50;4392567;32;35078;-82
2022/04/13 11:19:32;;;;;;;8.07;5.22;;;;;;;20.45;22.55;100499.94;4392495;32;31892;-83
2022/04/13 11:21:59;;;;;;;10.98;5.32;;;;;;;20.27;22.19;100502.16;4406209;32;34588;-83
2022/04/13 11:24:39;;;;;;;10.50;5.37;;;;;;;20.51;23.77;100502.22;4392968;32;33931;-83
2022/04/13 11:27:08;;;;;;;11.68;6.15;;;;;;;20.65;25.54;100495.78;4382775;32;33447;-82
2022/04/13 11:29:56;;;;;;;8.35;5.70;;;;;;;20.66;24.68;100498.37;4392452;32;32946;-82
2022/04/13 11:32:24;;;;;;;;;;;;;;;20.87;22.52;100495.06;4406849;32;33805;-82
2022/04/13 11:34:52;;;;;;;9.20;5.72;;;;;;;21.06;22.92;100483.75;4405712;32;33306;-82
2022/04/13 11:38:09;;;;;;;10.27;5.90;;;;;;;20.90;24.39;100487.63;4406226;32;33322;-82